Cope, Colorado
Current Conditions -  °F | °C
As of 7:53 PM on Monday 20 Oct 2014 (Local Time) from KAKO Reporting Station
Clear Clear  
Wind Chill: 59°   Ceiling: Unl
Heat Index: 59°   Visibility: 10mi
Dew Point: 38°   Wind: 13mph
Humidity: 46%   Direction: 170°S
Pressure: 30.09"   Gusts: NA
Location:  39.66°N, 102.85°W
Report Text: KAKO 210153Z AUTO 17011KT 10SM CLR 15/03 A3009 RMK AO2 SLP161 T01500033
Loading
Personal Weather Stations






























Interactive Weather Map
Tropical Storm Tracking
New forecast layout! Learn more

10-Day Weather Forecast

Advertisements
Track Severe Weather on mobile